Time;durP1;ratioP1;P1;durP2;ratioP2;P2;SDS_P1;SDS_P2;PMS_P1;PMS_P2;Temp;Humidity;BMP_temperature;BMP_pressure;BME280_temperature;BME280_humidity;BME280_pressure;Samples;Min_cycle;Max_cycle;Signal;HPM_P1;HPM_P2
2022/10/06 00:00:42;;;;;;;5.10;1.27;;;17.50;94.80;;;;;;5054005;28;20028;-65
2022/10/06 00:03:08;;;;;;;9.73;1.35;;;17.50;94.80;;;;;;5054397;28;20029;-65
2022/10/06 00:05:33;;;;;;;2.95;1.00;;;17.40;94.70;;;;;;5054122;28;20021;-65
2022/10/06 00:08:00;;;;;;;5.63;1.30;;;17.40;94.80;;;;;;5054172;28;20078;-65
2022/10/06 00:10:26;;;;;;;10.10;1.40;;;17.40;94.90;;;;;;5054058;28;20037;-64
2022/10/06 00:12:52;;;;;;;7.90;1.15;;;17.30;94.80;;;;;;5054477;28;20029;-65
2022/10/06 00:15:21;;;;;;;7.13;1.25;;;17.30;94.90;;;;;;5052512;28;20029;-65
2022/10/06 00:17:47;;;;;;;7.68;1.30;;;17.30;94.80;;;;;;5054045;28;20497;-65
2022/10/06 00:20:13;;;;;;;7.57;1.38;;;17.30;94.80;;;;;;5053916;28;20025;-65
2022/10/06 00:22:42;;;;;;;9.40;1.48;;;17.20;94.80;;;;;;5053836;28;20025;-64
2022/10/06 00:25:10;;;;;;;9.43;1.23;;;17.20;94.70;;;;;;5053975;28;20037;-65
2022/10/06 00:27:41;;;;;;;9.70;1.60;;;17.20;94.80;;;;;;5053968;28;20013;-64
2022/10/06 00:30:10;;;;;;;6.28;1.10;;;17.20;94.90;;;;;;5053538;28;20041;-64
2022/10/06 00:32:36;;;;;;;7.57;1.63;;;17.20;94.80;;;;;;5053684;28;20071;-64
2022/10/06 00:35:02;;;;;;;5.97;1.35;;;17.10;94.80;;;;;;5053669;28;20029;-64
2022/10/06 00:37:33;;;;;;;6.28;1.23;;;17.10;95.10;;;;;;5053457;28;20067;-64
2022/10/06 00:40:00;;;;;;;10.48;1.77;;;17.00;94.90;;;;;;5053918;28;20025;-63
2022/10/06 00:42:28;;;;;;;8.35;1.42;;;17.00;94.90;;;;;;5053686;28;20013;-64
2022/10/06 00:44:56;;;;;;;7.43;1.83;;;17.00;94.90;;;;;;5053353;28;20021;-64
2022/10/06 00:47:23;;;;;;;6.75;1.65;;;17.00;94.80;;;;;;5053455;28;20155;-64
2022/10/06 00:49:49;;;;;;;5.10;1.77;;;16.90;94.80;;;;;;5033528;28;20057;-64
2022/10/06 00:52:19;;;;;;;5.45;1.15;;;16.90;94.70;;;;;;5033507;28;20101;-64
2022/10/06 00:54:44;;;;;;;9.70;1.55;;;16.90;94.70;;;;;;5032759;28;20071;-64
2022/10/06 00:57:10;;;;;;;6.97;1.40;;;16.90;94.70;;;;;;5031124;28;20018;-64
2022/10/06 00:59:37;;;;;;;8.95;1.90;;;16.90;94.60;;;;;;5032093;28;20083;-64
2022/10/06 01:02:17;;;;;;;8.30;1.75;;;16.80;94.50;;;;;;5033077;28;20096;-64
2022/10/06 01:04:50;;;;;;;9.45;1.85;;;16.90;94.50;;;;;;5033574;28;20120;-64
2022/10/06 01:07:18;;;;;;;5.03;1.10;;;16.80;94.50;;;;;;5033263;28;20021;-65
2022/10/06 01:09:43;;;;;;;10.27;1.35;;;16.80;94.40;;;;;;5033104;28;20382;-65
2022/10/06 01:12:09;;;;;;;10.90;1.92;;;16.70;94.30;;;;;;5031528;28;20052;-64
2022/10/06 01:14:37;;;;;;;14.00;2.33;;;16.70;94.30;;;;;;5033225;28;20028;-64
2022/10/06 01:17:21;;;;;;;9.13;1.90;;;16.70;94.20;;;;;;5032999;28;20091;-65
2022/10/06 01:19:59;;;;;;;8.98;2.22;;;16.70;94.10;;;;;;5033137;28;20128;-65
2022/10/06 01:22:50;;;;;;;6.80;1.63;;;16.70;94.20;;;;;;5032978;28;20025;-65
2022/10/06 01:25:17;;;;;;;8.88;1.88;;;16.60;93.80;;;;;;5033013;28;20063;-64
2022/10/06 01:27:52;;;;;;;6.75;1.80;;;16.60;94.00;;;;;;5032733;28;20025;-65
2022/10/06 01:30:26;;;;;;;11.05;1.90;;;16.60;94.00;;;;;;5033081;28;20041;-64
2022/10/06 01:32:52;;;;;;;16.00;2.15;;;16.60;94.00;;;;;;5032780;28;20040;-64
2022/10/06 01:35:18;;;;;;;10.00;2.05;;;16.50;93.80;;;;;;5032920;28;20034;-64
2022/10/06 01:37:43;;;;;;;14.98;2.65;;;16.50;93.80;;;;;;5032763;28;20032;-65
2022/10/06 01:40:09;;;;;;;10.15;2.08;;;16.50;93.70;;;;;;5033072;28;20022;-64
2022/10/06 01:42:35;;;;;;;9.35;1.65;;;16.40;93.70;;;;;;5032594;28;20053;-64
2022/10/06 01:45:01;;;;;;;10.70;2.20;;;16.40;93.70;;;;;;5032809;28;20095;-64
2022/10/06 01:47:26;;;;;;;9.60;1.73;;;16.40;93.70;;;;;;5032842;28;20100;-64
2022/10/06 01:49:52;;;;;;;11.07;2.20;;;16.40;93.80;;;;;;5031376;28;20083;-64
2022/10/06 01:52:18;;;;;;;10.43;1.63;;;16.30;93.60;;;;;;5032814;28;20025;-64
2022/10/06 01:54:44;;;;;;;12.98;1.80;;;16.40;93.70;;;;;;5032795;28;20447;-64
2022/10/06 01:57:10;;;;;;;14.18;2.80;;;16.40;93.80;;;;;;5032327;28;20034;-64
2022/10/06 01:59:36;;;;;;;11.52;2.50;;;16.40;93.70;;;;;;5032786;28;20022;-64
2022/10/06 02:02:03;;;;;;;11.88;1.92;;;16.30;93.70;;;;;;5032571;28;20447;-64
2022/10/06 02:04:29;;;;;;;12.77;2.00;;;16.30;93.70;;;;;;5031310;28;20034;-64
2022/10/06 02:06:55;;;;;;;11.45;2.25;;;16.30;93.70;;;;;;5032151;28;20482;-64
2022/10/06 02:09:21;;;;;;;13.48;2.97;;;16.20;93.60;;;;;;5035801;28;20084;-64
2022/10/06 02:11:47;;;;;;;8.18;2.10;;;16.20;93.70;;;;;;5036290;28;20021;-64
2022/10/06 02:14:12;;;;;;;11.68;2.20;;;16.20;93.60;;;;;;5036477;28;20359;-64
2022/10/06 02:16:39;;;;;;;9.98;1.95;;;16.20;93.80;;;;;;5036174;28;20053;-64
2022/10/06 02:19:05;;;;;;;8.27;2.28;;;16.20;93.70;;;;;;5036444;28;20028;-64
2022/10/06 02:21:31;;;;;;;11.57;2.40;;;16.10;93.80;;;;;;5036266;28;20027;-64
2022/10/06 02:23:56;;;;;;;15.45;3.22;;;16.10;93.80;;;;;;5036121;28;20483;-64
2022/10/06 02:26:22;;;;;;;12.57;2.45;;;16.10;93.70;;;;;;5036115;28;20033;-64
2022/10/06 02:28:51;;;;;;;11.85;2.10;;;16.00;93.80;;;;;;5035894;28;20017;-64
2022/10/06 02:31:16;;;;;;;15.55;2.85;;;16.00;93.80;;;;;;5036144;28;20390;-64
2022/10/06 02:33:43;;;;;;;10.95;2.65;;;16.00;93.80;;;;;;5035919;28;20033;-63
2022/10/06 02:36:11;;;;;;;9.88;2.20;;;16.00;93.90;;;;;;5035821;28;20086;-65
2022/10/06 02:38:37;;;;;;;12.60;2.60;;;16.00;93.90;;;;;;5035697;28;20080;-64
2022/10/06 02:41:03;;;;;;;12.77;2.88;;;15.90;93.80;;;;;;5036007;28;20453;-65
2022/10/06 02:43:30;;;;;;;11.63;2.63;;;15.90;94.00;;;;;;5035933;28;20029;-65
2022/10/06 02:46:07;;;;;;;14.88;2.85;;;15.90;94.00;;;;;;5035857;28;20374;-64
2022/10/06 02:48:33;;;;;;;13.73;3.05;;;15.90;93.80;;;;;;5035795;28;20486;-64
2022/10/06 02:51:08;;;;;;;11.55;2.47;;;15.90;93.80;;;;;;5035568;28;20385;-64
2022/10/06 02:53:35;;;;;;;10.93;2.80;;;15.90;93.80;;;;;;5035526;28;20029;-64
2022/10/06 02:56:02;;;;;;;11.85;2.63;;;15.90;93.90;;;;;;5035760;28;20025;-64
2022/10/06 02:58:29;;;;;;;16.05;3.35;;;15.80;93.80;;;;;;5035638;28;20431;-64
2022/10/06 03:01:00;;;;;;;17.92;3.25;;;15.80;93.90;;;;;;5035554;28;20018;-64
2022/10/06 03:03:25;;;;;;;16.53;2.93;;;15.80;93.90;;;;;;5035529;28;20041;-64
2022/10/06 03:06:00;;;;;;;13.68;3.00;;;15.80;93.80;;;;;;5035266;28;20276;-64
2022/10/06 03:08:26;;;;;;;10.40;2.55;;;15.80;93.90;;;;;;5035148;28;20033;-64
2022/10/06 03:10:57;;;;;;;8.88;2.55;;;15.70;93.90;;;;;;5035429;28;20438;-64
2022/10/06 03:13:22;;;;;;;13.27;3.20;;;15.70;93.90;;;;;;5034203;28;20045;-64
2022/10/06 03:15:48;;;;;;;12.05;2.42;;;15.60;93.90;;;;;;5035283;28;20103;-64
2022/10/06 03:18:13;;;;;;;15.30;3.60;;;15.60;94.00;;;;;;5035435;28;20021;-64
2022/10/06 03:20:39;;;;;;;12.73;2.70;;;15.60;93.90;;;;;;5034712;28;20505;-64
2022/10/06 03:23:04;;;;;;;18.98;3.55;;;15.60;93.90;;;;;;5034761;28;20505;-64
2022/10/06 03:25:30;;;;;;;16.77;3.40;;;15.60;93.90;;;;;;5035093;28;20040;-64
2022/10/06 03:27:55;;;;;;;13.50;2.55;;;15.60;93.90;;;;;;5035161;28;20028;-64
2022/10/06 03:30:21;;;;;;;15.10;3.22;;;15.50;93.90;;;;;;5034973;28;20048;-64
2022/10/06 03:32:46;;;;;;;16.08;3.47;;;15.50;94.00;;;;;;5035080;28;20025;-64
2022/10/06 03:35:12;;;;;;;17.40;3.20;;;15.50;93.90;;;;;;5033683;28;20056;-64
2022/10/06 03:37:37;;;;;;;9.07;2.83;;;15.50;94.00;;;;;;5034927;28;20501;-65
2022/10/06 03:40:03;;;;;;;13.68;3.42;;;15.50;94.00;;;;;;5034827;28;20479;-64
2022/10/06 03:42:31;;;;;;;13.93;3.10;;;15.50;94.00;;;;;;5035213;28;20044;-64
2022/10/06 03:44:56;;;;;;;15.25;3.08;;;15.40;94.00;;;;;;5034737;28;20025;-64
2022/10/06 03:47:22;;;;;;;15.48;2.97;;;15.40;94.10;;;;;;5034854;28;20026;-64
2022/10/06 03:49:47;;;;;;;14.20;3.15;;;15.40;94.10;;;;;;5033208;28;20030;-64
2022/10/06 03:52:13;;;;;;;14.80;3.25;;;15.40;94.10;;;;;;5034641;28;20387;-64
2022/10/06 03:54:38;;;;;;;13.23;2.70;;;15.30;94.20;;;;;;5033402;28;20394;-64
2022/10/06 03:57:04;;;;;;;11.20;2.20;;;15.30;94.20;;;;;;5034994;28;20031;-64
2022/10/06 03:59:32;;;;;;;11.93;2.30;;;15.30;94.20;;;;;;5034468;28;20040;-64
2022/10/06 04:01:58;;;;;;;13.65;3.15;;;15.30;94.20;;;;;;5034639;28;20024;-64
2022/10/06 04:04:24;;;;;;;14.30;3.10;;;15.30;94.30;;;;;;5033336;28;20033;-65
2022/10/06 04:06:49;;;;;;;12.18;2.33;;;15.30;94.20;;;;;;5034130;28;20034;-64
2022/10/06 04:09:15;;;;;;;15.30;3.00;;;15.20;94.20;;;;;;5034360;28;20082;-64
2022/10/06 04:11:41;;;;;;;12.75;3.22;;;15.20;94.20;;;;;;5034439;28;20041;-64
2022/10/06 04:14:10;;;;;;;10.07;2.45;;;15.20;94.30;;;;;;5034227;28;20017;-64
2022/10/06 04:16:40;;;;;;;12.82;2.53;;;15.20;94.30;;;;;;5034057;28;20030;-63
2022/10/06 04:19:09;;;;;;;14.70;3.15;;;15.20;94.30;;;;;;5034576;28;20033;-64
2022/10/06 04:21:36;;;;;;;12.60;2.90;;;15.10;94.20;;;;;;5033636;28;20032;-64
2022/10/06 04:24:02;;;;;;;16.13;3.42;;;15.10;94.30;;;;;;5034060;28;20056;-64
2022/10/06 04:26:32;;;;;;;15.00;3.50;;;15.20;94.30;;;;;;5033955;28;20455;-64
2022/10/06 04:28:59;;;;;;;12.88;3.15;;;15.10;94.50;;;;;;5033993;28;20013;-63
2022/10/06 04:31:31;;;;;;;13.45;3.15;;;15.10;94.30;;;;;;5033739;28;20025;-64
2022/10/06 04:33:58;;;;;;;17.27;2.92;;;15.00;94.40;;;;;;5033796;28;20498;-64
2022/10/06 04:36:35;;;;;;;9.40;2.20;;;15.10;94.40;;;;;;5033384;28;20034;-64
2022/10/06 04:39:03;;;;;;;13.10;2.92;;;15.00;94.40;;;;;;5033795;28;20482;-63
2022/10/06 04:41:35;;;;;;;17.92;2.90;;;15.00;94.60;;;;;;5033703;28;20029;-64
2022/10/06 04:44:01;;;;;;;13.23;2.83;;;15.00;94.60;;;;;;5033717;28;20024;-64
2022/10/06 04:46:28;;;;;;;13.77;2.63;;;15.00;94.60;;;;;;5033728;28;20029;-63
2022/10/06 04:48:54;;;;;;;13.00;2.88;;;15.00;94.60;;;;;;5033548;28;20025;-64
2022/10/06 04:51:23;;;;;;;12.65;2.55;;;14.90;94.60;;;;;;5033086;28;20033;-64
2022/10/06 04:53:48;;;;;;;13.20;2.97;;;15.00;94.70;;;;;;5033414;28;20013;-64
2022/10/06 04:56:20;;;;;;;12.50;3.10;;;14.90;94.70;;;;;;5033628;28;20021;-64
2022/10/06 04:58:47;;;;;;;14.43;3.10;;;14.90;94.80;;;;;;5033714;28;20040;-64
2022/10/06 05:01:30;;;;;;;15.35;3.05;;;14.80;94.80;;;;;;5025444;28;20026;-63
2022/10/06 05:03:58;;;;;;;20.13;2.97;;;14.90;94.90;;;;;;5013121;28;20034;-64
2022/10/06 05:06:33;;;;;;;15.48;2.78;;;14.80;95.00;;;;;;5011642;28;20532;-64
2022/10/06 05:09:05;;;;;;;11.52;2.70;;;14.80;94.90;;;;;;5012453;28;20471;-64
2022/10/06 05:11:32;;;;;;;15.10;3.00;;;14.80;94.90;;;;;;5013512;28;20045;-64
2022/10/06 05:13:57;;;;;;;12.00;2.72;;;14.80;94.90;;;;;;5013993;28;20025;-64
2022/10/06 05:16:26;;;;;;;18.58;3.45;;;14.80;94.90;;;;;;5013578;28;20022;-64
2022/10/06 05:18:52;;;;;;;14.02;2.78;;;14.70;94.90;;;;;;5013588;28;20022;-64
2022/10/06 05:21:20;;;;;;;16.02;3.03;;;14.70;94.60;;;;;;5013294;28;20434;-64
2022/10/06 05:23:46;;;;;;;12.77;2.35;;;14.80;94.30;;;;;;5013263;28;20022;-64
2022/10/06 05:26:15;;;;;;;14.07;2.83;;;14.70;94.20;;;;;;5013032;28;20030;-64
2022/10/06 05:28:41;;;;;;;15.07;3.10;;;14.70;94.30;;;;;;5013407;28;20022;-65
2022/10/06 05:31:09;;;;;;;13.00;2.92;;;14.70;94.30;;;;;;5013138;28;20038;-63
2022/10/06 05:33:35;;;;;;;15.10;3.15;;;14.60;94.40;;;;;;5027985;28;20034;-64
2022/10/06 05:36:08;;;;;;;14.65;2.85;;;14.60;94.40;;;;;;5013127;28;20061;-64
2022/10/06 05:38:33;;;;;;;14.05;2.85;;;14.60;94.30;;;;;;5012970;28;20037;-64
2022/10/06 05:41:12;;;;;;;15.27;3.53;;;14.60;94.30;;;;;;5013140;28;20076;-64
2022/10/06 05:43:38;;;;;;;16.55;2.92;;;14.70;94.30;;;;;;5012648;28;20053;-64
2022/10/06 05:46:12;;;;;;;14.63;3.72;;;14.60;94.20;;;;;;5013044;28;20018;-64
2022/10/06 05:48:37;;;;;;;11.40;2.83;;;14.70;94.20;;;;;;5037091;28;20021;-64
2022/10/06 05:51:06;;;;;;;14.13;3.08;;;14.70;94.20;;;;;;5039445;28;20088;-64
2022/10/06 05:53:34;;;;;;;20.95;3.67;;;14.60;94.30;;;;;;5030548;28;20022;-63
2022/10/06 05:56:14;;;;;;;13.98;2.65;;;14.70;95.10;;;;;;5025044;28;20036;-63
2022/10/06 05:58:42;;;;;;;13.68;2.83;;;14.60;94.90;;;;;;5022853;28;20475;-63
2022/10/06 06:01:33;;;;;;;10.93;2.47;;;14.50;95.20;;;;;;5025642;28;20025;-63
2022/10/06 06:04:05;;;;;;;14.68;3.28;;;14.60;95.60;;;;;;5032628;28;20030;-63
2022/10/06 06:06:39;;;;;;;12.98;2.72;;;14.50;95.60;;;;;;5021044;28;20025;-63
2022/10/06 06:09:06;;;;;;;18.20;3.20;;;14.50;95.50;;;;;;5021038;28;20029;-67
2022/10/06 06:11:33;;;;;;;19.70;3.53;;;14.50;95.60;;;;;;5015864;28;20234;-67
2022/10/06 06:14:01;;;;;;;16.08;3.60;;;14.50;95.50;;;;;;5024437;28;20025;-68
2022/10/06 06:16:32;;;;;;;11.38;2.90;;;14.40;95.60;;;;;;5027777;28;20025;-68
2022/10/06 06:18:58;;;;;;;21.02;3.38;;;14.50;96.20;;;;;;5028573;28;20025;-68
2022/10/06 06:21:25;;;;;;;22.30;3.67;;;14.60;97.00;;;;;;5029835;28;20112;-68
2022/10/06 06:23:53;;;;;;;15.32;3.03;;;14.70;96.80;;;;;;5029462;28;20025;-68
2022/10/06 06:26:24;;;;;;;15.27;3.28;;;14.70;96.70;;;;;;5027720;28;20033;-66
2022/10/06 06:28:51;;;;;;;15.90;3.38;;;14.80;96.70;;;;;;5030071;28;20026;-68
2022/10/06 06:31:21;;;;;;;14.73;3.80;;;14.80;97.60;;;;;;5035147;28;20056;-68
2022/10/06 06:33:52;;;;;;;14.75;3.72;;;14.70;97.30;;;;;;5040948;28;20025;-68
2022/10/06 06:36:26;;;;;;;17.25;3.85;;;14.70;97.00;;;;;;5036793;28;20032;-69
2022/10/06 06:38:54;;;;;;;18.90;3.45;;;14.70;96.60;;;;;;5032015;28;20467;-68
2022/10/06 06:41:21;;;;;;;13.75;4.30;;;14.70;96.50;;;;;;5012011;28;20479;-68
2022/10/06 06:43:47;;;;;;;12.20;3.22;;;14.70;96.70;;;;;;5011344;28;20381;-68
2022/10/06 06:46:14;;;;;;;10.30;3.20;;;14.80;96.70;;;;;;5011836;28;20072;-68
2022/10/06 06:48:40;;;;;;;13.65;3.20;;;14.80;96.50;;;;;;5011527;28;20022;-68
2022/10/06 06:51:07;;;;;;;14.88;3.47;;;14.80;96.70;;;;;;5033589;28;20034;-67
2022/10/06 06:53:33;;;;;;;15.32;3.72;;;14.80;96.30;;;;;;5029088;28;20482;-67
2022/10/06 06:55:59;;;;;;;13.77;3.60;;;14.80;96.10;;;;;;5034306;28;20032;-67
2022/10/06 06:58:25;;;;;;;17.08;3.53;;;14.90;96.10;;;;;;5035643;28;20108;-67
2022/10/06 07:00:51;;;;;;;12.60;2.85;;;14.90;96.00;;;;;;5033256;28;20029;-67
2022/10/06 07:03:19;;;;;;;13.30;3.13;;;14.90;95.90;;;;;;5052364;28;20026;-66
2022/10/06 07:05:45;;;;;;;13.73;2.75;;;15.00;95.90;;;;;;5049808;28;20467;-68
2022/10/06 07:08:13;;;;;;;101.22;10.82;;;15.00;96.10;;;;;;5045045;28;20531;-68
2022/10/06 07:10:39;;;;;;;33.40;5.07;;;15.00;96.70;;;;;;5034138;28;20037;-67
2022/10/06 07:13:05;;;;;;;17.65;3.45;;;15.00;96.60;;;;;;5034560;28;20022;-67
2022/10/06 07:26:31;;;;;;;10.55;2.90;;;15.20;95.60;;;;;;5034578;28;20458;-67
2022/10/06 07:29:00;;;;;;;12.50;2.60;;;15.20;95.60;;;;;;5032155;28;20519;-67
2022/10/06 07:31:32;;;;;;;13.98;3.20;;;15.20;95.60;;;;;;5034910;28;20032;-69
2022/10/06 07:33:59;;;;;;;8.32;2.50;;;15.30;95.60;;;;;;5040020;28;20028;-69
2022/10/06 07:36:24;;;;;;;15.40;3.47;;;15.30;95.60;;;;;;5036073;28;20025;-70
2022/10/06 07:38:50;;;;;;;14.48;3.45;;;15.30;95.50;;;;;;5033795;28;20029;-70
2022/10/06 07:41:15;;;;;;;13.43;2.70;;;15.40;95.50;;;;;;5047112;28;20025;-68
2022/10/06 07:43:41;;;;;;;15.07;3.25;;;15.40;95.40;;;;;;5054559;28;20471;-69
2022/10/06 07:46:10;;;;;;;12.20;3.00;;;15.40;95.50;;;;;;5041941;28;20029;-69
2022/10/06 07:48:37;;;;;;;14.93;3.00;;;15.50;95.70;;;;;;5033772;28;20021;-68
2022/10/06 07:51:05;;;;;;;13.27;3.10;;;15.50;95.70;;;;;;5033351;28;20034;-69
2022/10/06 07:53:32;;;;;;;13.63;2.38;;;15.50;95.60;;;;;;5033653;28;20406;-69
2022/10/06 07:56:04;;;;;;;13.98;3.00;;;15.50;95.50;;;;;;5037052;28;20435;-68
2022/10/06 07:58:31;;;;;;;12.85;2.97;;;15.60;95.40;;;;;;5054186;28;20024;-69
2022/10/06 08:01:08;;;;;;;14.57;3.13;;;15.60;95.60;;;;;;5053159;28;20035;-69
2022/10/06 08:03:35;;;;;;;14.73;3.00;;;15.60;95.60;;;;;;5048772;28;20544;-69
2022/10/06 08:06:01;;;;;;;11.55;2.60;;;15.70;95.60;;;;;;5032089;28;20033;-68
2022/10/06 08:08:31;;;;;;;11.60;2.92;;;15.70;95.60;;;;;;5034114;28;20419;-68
2022/10/06 08:10:58;;;;;;;9.57;2.40;;;15.70;95.50;;;;;;5048301;28;20037;-68
2022/10/06 08:13:24;;;;;;;14.25;2.88;;;15.70;95.50;;;;;;5031571;28;20025;-68
2022/10/06 08:15:50;;;;;;;10.07;2.63;;;15.70;95.40;;;;;;5032570;28;20040;-69
2022/10/06 08:18:17;;;;;;;13.27;2.88;;;15.80;95.40;;;;;;5042203;28;20021;-68
2022/10/06 08:20:44;;;;;;;20.25;3.30;;;15.80;95.30;;;;;;5054206;28;20158;-68
2022/10/06 08:23:10;;;;;;;10.73;3.25;;;15.80;95.30;;;;;;5040610;28;20026;-67
2022/10/06 08:25:41;;;;;;;14.25;2.72;;;15.80;95.30;;;;;;5050274;28;20033;-68
2022/10/06 08:28:11;;;;;;;16.88;2.53;;;15.80;95.30;;;;;;5045222;28;20093;-66
2022/10/06 08:30:36;;;;;;;13.57;3.10;;;15.90;95.30;;;;;;5021451;28;20037;-68
2022/10/06 08:33:04;;;;;;;15.48;2.70;;;15.90;95.30;;;;;;5026613;28;20120;-68
2022/10/06 08:35:30;;;;;;;11.82;2.40;;;15.90;95.40;;;;;;5047178;28;20034;-67
2022/10/06 08:37:56;;;;;;;18.17;3.25;;;15.90;95.40;;;;;;5031936;28;20080;-68
2022/10/06 08:40:23;;;;;;;8.38;2.17;;;15.90;95.40;;;;;;5025004;28;20037;-69
2022/10/06 08:42:54;;;;;;;9.73;2.78;;;16.00;95.30;;;;;;5032401;28;20018;-68
2022/10/06 08:45:34;;;;;;;13.75;2.40;;;16.00;95.30;;;;;;5035842;28;20490;-68
2022/10/06 08:48:04;;;;;;;11.82;2.58;;;16.00;95.30;;;;;;5035084;28;20025;-68
2022/10/06 08:50:37;;;;;;;12.02;2.78;;;16.00;95.40;;;;;;5033372;28;20032;-68
2022/10/06 08:53:39;;;;;;;14.40;2.47;;;16.00;95.30;;;;;;5033397;28;20113;-68
2022/10/06 08:56:17;;;;;;;11.50;2.40;;;16.00;95.20;;;;;;5031321;28;20394;-68
2022/10/06 08:59:03;;;;;;;11.98;2.33;;;16.00;95.30;;;;;;5033656;28;20083;-67
2022/10/06 09:01:43;;;;;;;10.00;2.55;;;16.00;95.30;;;;;;5033349;28;20376;-68
2022/10/06 09:04:21;;;;;;;14.05;2.47;;;16.10;95.20;;;;;;5033397;28;20082;-69
2022/10/06 09:07:04;;;;;;;10.07;2.30;;;16.00;95.00;;;;;;5033150;28;20025;-68
2022/10/06 09:10:15;;;;;;;10.68;2.30;;;16.10;95.50;;;;;;5033045;28;20032;-67
2022/10/06 09:12:54;;;;;;;9.40;2.20;;;16.10;95.20;;;;;;5033460;28;20017;-68
2022/10/06 09:15:37;;;;;;;8.93;1.92;;;16.10;95.20;;;;;;5033373;28;20104;-67
2022/10/06 09:18:02;;;;;;;11.48;2.40;;;16.10;95.10;;;;;;5032650;28;20070;-68
2022/10/06 09:20:38;;;;;;;9.20;2.33;;;16.10;95.10;;;;;;5033133;28;20018;-68
2022/10/06 09:23:12;;;;;;;8.70;2.38;;;16.10;95.20;;;;;;5032890;28;20120;-67
2022/10/06 09:25:37;;;;;;;9.05;2.50;;;16.10;95.20;;;;;;5032784;28;20049;-67
2022/10/06 09:28:14;;;;;;;7.75;1.90;;;16.10;95.10;;;;;;5033074;28;20095;-66
2022/10/06 09:30:41;;;;;;;10.52;1.83;;;16.20;95.20;;;;;;5033045;28;20034;-68
2022/10/06 09:33:17;;;;;;;9.00;1.77;;;16.20;95.10;;;;;;5032731;28;20459;-68
2022/10/06 09:36:08;;;;;;;10.23;2.50;;;16.20;95.20;;;;;;5048239;28;20029;-68
2022/10/06 09:38:46;;;;;;;7.80;2.03;;;16.20;95.10;;;;;;5032787;28;20018;-67
2022/10/06 09:41:13;;;;;;;11.63;2.42;;;16.20;95.30;;;;;;5032554;28;20025;-67
2022/10/06 09:43:40;;;;;;;10.13;1.73;;;16.20;95.20;;;;;;5032834;28;20036;-67
2022/10/06 09:46:27;;;;;;;12.25;2.55;;;16.20;95.00;;;;;;5032678;28;20053;-67
2022/10/06 09:49:17;;;;;;;6.97;1.98;;;16.20;95.10;;;;;;5031167;28;20037;-65
2022/10/06 09:51:59;;;;;;;9.43;2.15;;;16.20;95.00;;;;;;5033179;28;20498;-66
2022/10/06 09:54:27;;;;;;;12.00;2.13;;;16.20;95.00;;;;;;5046716;28;20049;-65
2022/10/06 09:56:54;;;;;;;7.80;1.85;;;16.30;95.10;;;;;;5035320;28;20068;-67
2022/10/06 09:59:31;;;;;;;12.98;3.05;;;16.30;95.00;;;;;;5035921;28;20033;-67
2022/10/06 10:01:58;;;;;;;12.18;2.20;;;16.30;95.00;;;;;;5032283;28;20025;-65
2022/10/06 10:04:29;;;;;;;8.77;2.40;;;16.30;95.00;;;;;;5032960;28;20042;-65
2022/10/06 10:07:15;;;;;;;8.25;1.73;;;16.30;94.90;;;;;;5031883;28;20036;-66
2022/10/06 10:09:41;;;;;;;11.10;2.03;;;16.40;94.90;;;;;;5032127;28;20033;-67
2022/10/06 10:12:25;;;;;;;11.25;2.33;;;16.40;94.90;;;;;;5032438;28;20025;-66
2022/10/06 10:14:52;;;;;;;8.23;1.92;;;16.40;94.30;;;;;;5043372;28;20029;-67
2022/10/06 10:17:28;;;;;;;12.05;1.90;;;16.40;94.40;;;;;;5012833;28;20101;-67
2022/10/06 10:19:54;;;;;;;8.65;1.70;;;16.40;94.20;;;;;;5035215;28;20463;-68
2022/10/06 10:22:22;;;;;;;13.27;2.25;;;16.40;94.10;;;;;;5035792;28;20078;-67
2022/10/06 10:24:53;;;;;;;5.50;1.80;;;16.40;94.00;;;;;;5030172;28;20025;-67
2022/10/06 10:27:36;;;;;;;12.32;1.92;;;16.40;94.10;;;;;;5029154;28;20052;-66
2022/10/06 10:30:09;;;;;;;7.13;1.92;;;16.40;94.20;;;;;;5033282;28;20414;-66
2022/10/06 10:33:03;;;;;;;7.85;1.58;;;16.40;94.10;;;;;;5036631;28;20060;-67
2022/10/06 10:35:40;;;;;;;7.95;2.30;;;16.50;94.10;;;;;;5022546;28;20033;-67
2022/10/06 10:38:11;;;;;;;6.78;1.70;;;16.50;94.20;;;;;;5035591;28;20482;-66
2022/10/06 10:40:44;;;;;;;8.57;1.40;;;16.40;93.90;;;;;;5031330;28;20029;-65
2022/10/06 10:43:21;;;;;;;7.60;1.73;;;16.50;93.80;;;;;;5035684;28;20557;-65
2022/10/06 10:46:22;;;;;;;6.90;1.67;;;16.50;93.90;;;;;;5034066;28;20121;-68
2022/10/06 10:48:54;;;;;;;7.90;1.80;;;16.50;93.90;;;;;;5034498;28;20036;-65
2022/10/06 10:51:23;;;;;;;;;;;16.50;93.50;;;;;;5038795;28;20025;-65
2022/10/06 10:53:57;;;;;;;8.23;1.52;;;16.50;93.60;;;;;;5034823;28;19962;-65
2022/10/06 10:56:25;;;;;;;6.32;1.10;;;16.50;93.40;;;;;;5038854;28;20429;-65
2022/10/06 10:59:05;;;;;;;6.93;1.65;;;16.50;93.30;;;;;;5055481;28;20036;-65
2022/10/06 11:01:36;;;;;;;5.97;1.17;;;16.50;93.30;;;;;;5052250;28;20441;-67
2022/10/06 11:04:02;;;;;;;8.90;1.77;;;16.50;93.30;;;;;;5050817;28;20044;-65
2022/10/06 11:06:46;;;;;;;8.25;1.80;;;16.50;93.00;;;;;;5041375;28;20021;-66
2022/10/06 11:09:25;;;;;;;5.18;1.10;;;16.60;93.30;;;;;;5031567;28;20033;-66
2022/10/06 11:12:15;;;;;;;6.50;1.27;;;16.60;93.50;;;;;;5038871;28;20048;-67
2022/10/06 11:14:54;;;;;;;6.68;1.25;;;16.60;93.50;;;;;;5038901;28;20024;-66
2022/10/06 11:17:25;;;;;;;6.60;1.42;;;16.60;93.30;;;;;;5040912;28;20025;-67
2022/10/06 11:20:08;;;;;;;6.32;1.30;;;16.60;93.30;;;;;;5021749;28;20083;-66
2022/10/06 11:22:56;;;;;;;9.07;1.23;;;16.60;93.30;;;;;;5036140;28;20029;-64
2022/10/06 11:25:24;;;;;;;10.07;1.25;;;16.70;93.30;;;;;;5032297;28;20032;-62
2022/10/06 11:28:24;;;;;;;8.80;1.60;;;16.60;93.30;;;;;;5041817;28;20037;-63
2022/10/06 11:31:03;;;;;;;7.65;1.70;;;16.70;93.30;;;;;;5033319;28;20418;-61
2022/10/06 11:33:43;;;;;;;6.55;1.30;;;16.70;93.10;;;;;;5037638;28;20040;-67
2022/10/06 11:36:18;;;;;;;7.60;1.75;;;16.70;92.90;;;;;;5030315;28;20356;-66
2022/10/06 11:38:56;;;;;;;7.15;1.23;;;16.70;92.90;;;;;;5019256;28;20109;-66
2022/10/06 11:41:25;;;;;;;13.30;1.70;;;16.70;92.90;;;;;;5038465;28;20100;-67
2022/10/06 11:44:03;;;;;;;7.95;1.30;;;16.70;92.80;;;;;;5036418;28;20051;-66
2022/10/06 11:46:31;;;;;;;9.73;1.23;;;16.70;92.80;;;;;;5030997;28;20068;-67
2022/10/06 11:49:28;;;;;;;8.60;1.65;;;16.80;92.80;;;;;;5034267;28;20030;-63
2022/10/06 11:51:55;;;;;;;4.88;1.45;;;16.80;92.60;;;;;;5034344;28;20045;-64
2022/10/06 11:54:39;;;;;;;7.40;1.52;;;16.80;92.50;;;;;;5033376;28;20466;-63
2022/10/06 11:57:22;;;;;;;5.20;1.20;;;16.80;92.70;;;;;;5034160;28;20079;-63
2022/10/06 11:59:55;;;;;;;7.93;1.20;;;16.80;92.60;;;;;;5034459;28;20032;-63
2022/10/06 12:02:40;;;;;;;5.50;1.00;;;16.80;92.50;;;;;;5034629;28;20371;-62
2022/10/06 12:05:09;;;;;;;6.25;1.88;;;16.90;92.60;;;;;;5034012;28;20033;-61
2022/10/06 12:08:10;;;;;;;7.15;1.08;;;16.80;92.60;;;;;;5034918;28;20026;-61
2022/10/06 12:10:47;;;;;;;6.68;1.65;;;16.80;92.60;;;;;;5033246;28;20052;-63
2022/10/06 12:13:24;;;;;;;5.32;1.00;;;16.90;92.60;;;;;;5034302;28;20033;-62
2022/10/06 12:16:13;;;;;;;5.10;1.08;;;16.90;92.10;;;;;;5034329;28;20032;-61
2022/10/06 12:18:48;;;;;;;5.05;1.00;;;16.90;92.60;;;;;;5034038;28;20026;-66
2022/10/06 12:21:35;;;;;;;4.55;1.15;;;16.90;92.50;;;;;;5034190;28;20032;-62
2022/10/06 12:24:03;;;;;;;9.02;1.60;;;17.00;92.60;;;;;;5033938;28;20033;-65
2022/10/06 12:26:35;;;;;;;4.45;1.00;;;17.00;92.40;;;;;;5034050;28;20056;-66
2022/10/06 12:29:18;;;;;;;9.52;1.05;;;17.00;92.40;;;;;;5034184;28;20569;-65
2022/10/06 12:31:59;;;;;;;4.75;1.25;;;17.00;92.30;;;;;;5033920;28;20041;-65
2022/10/06 12:34:50;;;;;;;3.40;0.80;;;17.00;92.20;;;;;;5033530;28;20025;-64
2022/10/06 12:37:28;;;;;;;4.13;0.70;;;17.00;92.20;;;;;;5033840;28;20021;-63
2022/10/06 12:40:35;;;;;;;4.97;1.00;;;17.10;91.70;;;;;;5049287;28;20081;-64
2022/10/06 12:43:21;;;;;;;3.67;1.00;;;17.10;91.40;;;;;;5033974;28;20120;-64
2022/10/06 12:46:29;;;;;;;3.75;0.77;;;17.10;91.60;;;;;;5033037;28;20025;-65
2022/10/06 12:49:01;;;;;;;7.85;1.08;;;17.10;91.40;;;;;;5011411;28;20022;-66
2022/10/06 12:51:38;;;;;;;4.35;0.80;;;17.10;90.90;;;;;;5031082;28;20049;-65
2022/10/06 12:54:19;;;;;;;3.25;0.82;;;17.10;91.00;;;;;;5032796;28;20375;-66
2022/10/06 12:57:02;;;;;;;5.40;0.90;;;17.20;90.90;;;;;;5033549;28;20018;-67
2022/10/06 12:59:37;;;;;;;3.55;0.65;;;17.20;91.00;;;;;;5033748;28;20069;-66
2022/10/06 13:02:12;;;;;;;5.93;0.70;;;17.20;90.80;;;;;;5033132;28;20041;-66
2022/10/06 13:04:49;;;;;;;3.50;0.70;;;17.20;90.80;;;;;;5033366;28;20084;-67
2022/10/06 13:07:21;;;;;;;2.78;0.93;;;17.20;90.60;;;;;;5033446;28;20018;-66
2022/10/06 13:09:52;;;;;;;4.53;0.80;;;17.20;90.40;;;;;;5033383;28;20029;-66
2022/10/06 13:12:31;;;;;;;2.60;0.55;;;17.30;90.20;;;;;;5033566;28;20156;-64